createdAt,value
2019-05-30T00:00:08.868Z,77.70
2019-05-30T00:00:53.946Z,77.80
2019-05-30T00:01:54.174Z,77.70
2019-05-30T00:02:53.935Z,77.80
2019-05-30T00:03:53.947Z,77.91
2019-05-30T00:04:54.050Z,77.70
2019-05-30T00:05:54.153Z,77.76
2019-05-30T00:06:54.174Z,77.91
2019-05-30T00:07:54.052Z,77.91
2019-05-30T00:08:52.730Z,78.21
2019-05-30T00:09:52.709Z,78.21
2019-05-30T00:10:52.700Z,78.42
2019-05-30T00:11:52.696Z,78.63
2019-05-30T00:12:52.676Z,78.97
2019-05-30T00:13:52.665Z,78.77
2019-05-30T00:14:52.659Z,79.14
2019-05-30T00:15:52.645Z,78.97
2019-05-30T00:16:52.643Z,79.08
2019-05-30T00:17:52.623Z,78.56
2019-05-30T00:18:52.614Z,79.08
2019-05-30T00:19:52.602Z,78.66
2019-05-30T00:20:52.590Z,79.28
2019-05-30T00:21:52.588Z,78.56
2019-05-30T00:22:52.593Z,79.08
2019-05-30T00:23:52.560Z,79.08
2019-05-30T00:24:52.547Z,78.97
2019-05-30T00:25:52.540Z,79.32
2019-05-30T00:26:52.538Z,79.01
2019-05-30T00:27:52.517Z,79.73
2019-05-30T00:28:52.503Z,79.22
2019-05-30T00:29:52.491Z,79.01
2019-05-30T00:30:52.480Z,79.49
2019-05-30T00:31:52.480Z,79.52
2019-05-30T00:32:52.459Z,79.32
2019-05-30T00:33:52.448Z,79.32
2019-05-30T00:34:52.437Z,79.52
2019-05-30T00:35:52.427Z,79.63
2019-05-30T00:36:52.425Z,79.22
2019-05-30T00:37:52.404Z,79.52
2019-05-30T00:38:52.403Z,79.63
2019-05-30T00:39:52.385Z,79.94
2019-05-30T00:40:52.379Z,80.97
2019-05-30T00:41:52.370Z,80.76
2019-05-30T00:42:52.352Z,80.76
2019-05-30T00:43:52.342Z,80.97
2019-05-30T00:44:52.331Z,79.42
2019-05-30T00:45:52.322Z,79.32
2019-05-30T00:46:52.368Z,79.05
2019-05-30T00:47:52.297Z,79.52
2019-05-30T00:48:52.286Z,79.25
2019-05-30T00:49:52.277Z,79.11
2019-05-30T00:50:52.273Z,79.15
2019-05-30T00:51:52.255Z,79.32
2019-05-30T00:52:52.251Z,79.52
2019-05-30T00:53:52.231Z,80.18
2019-05-30T00:54:52.221Z,79.32
2019-05-30T00:55:52.213Z,79.32
2019-05-30T00:56:52.200Z,79.87
2019-05-30T00:57:52.199Z,79.22
2019-05-30T00:58:52.178Z,80.18
2019-05-30T00:59:52.165Z,80.56
2019-05-30T01:00:52.155Z,81.11
2019-05-30T01:01:52.144Z,79.46
2019-05-30T01:02:52.167Z,79.46
2019-05-30T01:03:52.123Z,79.15
2019-05-30T01:04:52.118Z,79.36
2019-05-30T01:05:52.105Z,79.97
2019-05-30T01:06:52.134Z,80.60
2019-05-30T01:07:52.098Z,79.91
2019-05-30T01:08:52.073Z,80.22
2019-05-30T01:09:52.058Z,80.32
2019-05-30T01:10:52.050Z,80.22
2019-05-30T01:11:52.036Z,80.63
2019-05-30T01:12:52.036Z,80.63
2019-05-30T01:13:52.017Z,79.91
2019-05-30T01:14:52.011Z,80.84
2019-05-30T01:15:51.998Z,80.60
2019-05-30T01:16:51.984Z,80.18
2019-05-30T01:17:51.983Z,80.63
2019-05-30T01:18:51.963Z,80.22
2019-05-30T01:19:51.960Z,80.43
2019-05-30T01:20:51.940Z,80.43
2019-05-30T01:21:51.932Z,80.63
2019-05-30T01:22:51.931Z,80.63
2019-05-30T01:23:51.909Z,80.84
2019-05-30T01:24:51.909Z,80.74
2019-05-30T01:25:51.887Z,81.05
2019-05-30T01:26:51.876Z,80.53
2019-05-30T01:27:51.877Z,80.43
2019-05-30T01:28:51.857Z,80.53
2019-05-30T01:29:51.855Z,80.84
2019-05-30T01:31:00.304Z,80.84
2019-05-30T01:31:52.822Z,81.29
2019-05-30T01:32:51.827Z,81.70
2019-05-30T01:33:51.808Z,82.32
2019-05-30T01:34:51.790Z,82.32
2019-05-30T01:35:51.782Z,82.50
2019-05-30T01:36:51.769Z,82.39
2019-05-30T01:37:51.771Z,82.22
2019-05-30T01:38:51.748Z,82.22
2019-05-30T01:39:51.739Z,82.43
2019-05-30T01:40:51.730Z,81.60
2019-05-30T01:41:51.717Z,81.19
2019-05-30T01:42:51.715Z,81.43
2019-05-30T01:43:51.697Z,81.29
2019-05-30T01:44:51.685Z,80.60
2019-05-30T01:45:51.674Z,80.88
2019-05-30T01:46:51.662Z,80.88
2019-05-30T01:47:51.662Z,81.12
2019-05-30T01:48:51.641Z,80.91
2019-05-30T01:49:51.634Z,81.09
2019-05-30T01:50:51.621Z,81.43
2019-05-30T01:51:51.610Z,81.60
2019-05-30T01:52:51.657Z,82.26
2019-05-30T01:53:51.589Z,82.22
2019-05-30T01:54:51.581Z,82.12
2019-05-30T01:55:51.566Z,82.26
2019-05-30T01:56:51.554Z,82.01
2019-05-30T01:57:51.544Z,82.43
2019-05-30T01:58:51.542Z,82.22
2019-05-30T01:59:51.529Z,82.46
2019-05-30T02:00:51.511Z,82.36
2019-05-30T02:01:51.502Z,82.32
2019-05-30T02:02:51.497Z,82.53
2019-05-30T02:03:51.488Z,82.43
2019-05-30T02:04:51.472Z,83.05
2019-05-30T02:05:51.460Z,83.15
2019-05-30T02:06:51.446Z,83.56
2019-05-30T02:07:51.437Z,83.50
2019-05-30T02:08:51.433Z,83.71
2019-05-30T02:09:51.415Z,83.40
2019-05-30T02:10:51.403Z,82.98
2019-05-30T02:11:51.395Z,82.78
2019-05-30T02:12:51.391Z,82.78
2019-05-30T02:13:51.379Z,82.78
2019-05-30T02:14:51.361Z,83.09
2019-05-30T02:15:51.368Z,83.50
2019-05-30T02:16:51.339Z,83.75
2019-05-30T02:17:51.329Z,83.81
2019-05-30T02:18:51.335Z,83.85
2019-05-30T02:19:51.307Z,83.91
2019-05-30T02:20:51.295Z,83.81
2019-05-30T02:21:51.284Z,83.91
2019-05-30T02:22:51.281Z,83.54
2019-05-30T02:23:51.270Z,83.33
2019-05-30T02:24:51.253Z,83.40
2019-05-30T02:25:51.244Z,83.50
2019-05-30T02:26:51.235Z,83.50
2019-05-30T02:27:51.229Z,83.64
2019-05-30T02:28:51.216Z,83.54
2019-05-30T02:29:51.198Z,83.61
2019-05-30T02:30:51.190Z,83.54
2019-05-30T02:31:51.180Z,83.44
2019-05-30T02:32:51.168Z,83.29
2019-05-30T02:33:51.164Z,83.85
2019-05-30T02:34:51.146Z,83.85
2019-05-30T02:35:51.134Z,84.92
2019-05-30T02:36:51.124Z,84.51
2019-05-30T02:37:51.117Z,84.51
2019-05-30T02:38:51.110Z,84.92
2019-05-30T02:39:51.089Z,84.72
2019-05-30T02:40:51.082Z,85.03
2019-05-30T02:41:51.072Z,84.72
2019-05-30T02:42:51.060Z,84.72
2019-05-30T02:43:51.064Z,84.58
2019-05-30T02:44:51.038Z,84.82
2019-05-30T02:45:51.034Z,84.99
2019-05-30T02:46:51.017Z,85.30
2019-05-30T02:47:51.010Z,84.37
2019-05-30T02:48:58.924Z,84.78
2019-05-30T02:49:51.982Z,83.75
2019-05-30T02:50:50.973Z,83.95
2019-05-30T02:51:50.965Z,83.64
2019-05-30T02:52:50.970Z,83.85
2019-05-30T02:53:50.948Z,83.85
2019-05-30T02:54:50.930Z,83.91
2019-05-30T02:55:50.919Z,84.68
2019-05-30T02:56:50.908Z,84.68
2019-05-30T02:57:50.898Z,84.47
2019-05-30T02:58:50.895Z,84.58
2019-05-30T02:59:50.882Z,84.95
2019-05-30T03:00:50.864Z,84.33
2019-05-30T03:02:00.846Z,84.99
2019-05-30T03:02:51.849Z,85.09
2019-05-30T03:03:50.874Z,84.84
2019-05-30T03:04:50.822Z,84.43
2019-05-30T03:05:50.834Z,83.81
2019-05-30T03:06:50.802Z,83.81
2019-05-30T03:07:50.795Z,84.53
2019-05-30T03:08:50.778Z,84.74
2019-05-30T03:09:50.781Z,84.53
2019-05-30T03:10:50.765Z,84.33
2019-05-30T03:11:50.744Z,84.33
2019-05-30T03:12:50.737Z,84.53
2019-05-30T03:13:50.725Z,84.60
2019-05-30T03:14:50.723Z,84.53
2019-05-30T03:15:50.705Z,84.33
2019-05-30T03:16:50.695Z,84.50
2019-05-30T03:17:50.682Z,84.70
2019-05-30T03:18:50.759Z,84.60
2019-05-30T03:19:50.669Z,84.70
2019-05-30T03:20:50.685Z,84.19
2019-05-30T03:21:50.636Z,83.98
2019-05-30T03:22:50.638Z,83.15
2019-05-30T03:23:50.623Z,83.56
2019-05-30T03:24:50.615Z,83.53
2019-05-30T03:25:50.595Z,82.90
2019-05-30T03:26:50.583Z,81.87
2019-05-30T03:27:50.575Z,82.15
2019-05-30T03:28:53.382Z,82.15
2019-05-30T03:29:50.564Z,81.42
2019-05-30T03:30:50.547Z,82.25
2019-05-30T03:31:50.643Z,81.32
2019-05-30T03:33:19.128Z,81.59
2019-05-30T03:33:51.539Z,81.38
2019-05-30T03:34:50.625Z,81.21
2019-05-30T03:35:50.491Z,81.07
2019-05-30T03:36:50.477Z,80.97
2019-05-30T03:37:50.475Z,81.18
2019-05-30T03:38:50.459Z,80.87
2019-05-30T03:39:50.453Z,81.18
2019-05-30T03:40:50.442Z,81.28
2019-05-30T03:41:50.427Z,81.28
2019-05-30T03:42:50.413Z,81.04
2019-05-30T03:43:50.427Z,81.00
2019-05-30T03:44:50.400Z,80.76
2019-05-30T03:45:50.383Z,80.62
2019-05-30T03:46:50.391Z,78.93
2019-05-30T03:47:50.358Z,78.11
2019-05-30T03:48:50.347Z,77.69
2019-05-30T03:49:50.347Z,77.83
2019-05-30T03:50:50.325Z,76.45
2019-05-30T03:51:50.316Z,75.29
2019-05-30T03:52:50.302Z,75.52
2019-05-30T03:53:50.295Z,74.60
2019-05-30T03:54:50.295Z,75.63
2019-05-30T03:55:50.275Z,75.73
2019-05-30T03:56:50.260Z,75.01
2019-05-30T03:57:50.249Z,74.98
2019-05-30T03:58:50.241Z,73.71
2019-05-30T03:59:50.250Z,71.89
2019-05-30T04:00:51.369Z,70.36
2019-05-30T04:01:50.207Z,68.14
2019-05-30T04:02:57.653Z,66.10
2019-05-30T04:03:51.185Z,64.20
2019-05-30T04:04:50.187Z,62.81
2019-05-30T04:05:50.163Z,60.89
2019-05-30T04:06:50.153Z,60.76
2019-05-30T04:07:50.148Z,58.80
2019-05-30T04:08:50.135Z,58.33
2019-05-30T04:09:50.153Z,57.29
2019-05-30T04:10:50.119Z,56.32
2019-05-30T04:11:50.096Z,54.97
2019-05-30T04:12:50.085Z,53.93
2019-05-30T04:13:50.081Z,54.41
2019-05-30T04:14:50.063Z,52.73
2019-05-30T04:15:50.062Z,52.31
2019-05-30T04:16:50.059Z,52.56
2019-05-30T04:17:50.031Z,50.99
2019-05-30T04:18:50.022Z,50.14
2019-05-30T04:19:50.012Z,49.10
2019-05-30T04:20:50.020Z,48.78
2019-05-30T04:21:49.993Z,47.95
2019-05-30T04:22:49.978Z,48.55
2019-05-30T04:23:49.970Z,48.22
2019-05-30T04:24:49.956Z,47.17
2019-05-30T04:25:49.956Z,46.65
2019-05-30T04:26:49.939Z,45.70
2019-05-30T04:27:49.923Z,44.81
2019-05-30T04:28:49.913Z,46.47
2019-05-30T04:29:49.901Z,45.72
2019-05-30T04:30:49.905Z,45.12
2019-05-30T04:31:49.884Z,45.42
2019-05-30T04:32:49.870Z,45.76
2019-05-30T04:33:49.860Z,46.85
2019-05-30T04:34:49.859Z,45.01
2019-05-30T04:35:49.846Z,45.67
2019-05-30T04:36:53.245Z,44.35
2019-05-30T04:37:49.823Z,43.82
2019-05-30T04:38:49.806Z,44.02
2019-05-30T04:39:49.797Z,43.70
2019-05-30T04:40:49.791Z,42.10
2019-05-30T04:41:49.781Z,43.90
2019-05-30T04:42:49.764Z,44.59
2019-05-30T04:43:49.759Z,43.64
2019-05-30T04:44:49.757Z,42.41
2019-05-30T04:45:49.754Z,39.99
2019-05-30T04:46:49.724Z,40.87
2019-05-30T04:47:49.712Z,39.75
2019-05-30T04:48:49.707Z,39.53
2019-05-30T04:49:49.695Z,39.81
2019-05-30T04:50:49.689Z,38.61
2019-05-30T04:51:49.670Z,39.31
2019-05-30T04:52:49.662Z,38.21
2019-05-30T04:53:49.661Z,38.03
2019-05-30T04:54:49.644Z,39.23
2019-05-30T04:55:49.655Z,39.63
2019-05-30T04:56:49.629Z,39.81
2019-05-30T04:57:49.612Z,37.49
2019-05-30T04:58:49.598Z,38.68
2019-05-30T04:59:49.590Z,38.16
2019-05-30T05:00:49.577Z,37.74
2019-05-30T05:01:49.613Z,37.74
2019-05-30T05:02:49.559Z,35.33
2019-05-30T05:03:49.548Z,36.71
2019-05-30T05:04:49.538Z,36.69
2019-05-30T05:05:49.531Z,36.69
2019-05-30T05:06:49.525Z,35.99
2019-05-30T05:07:49.511Z,36.19
2019-05-30T05:08:49.500Z,35.77
2019-05-30T05:09:49.497Z,35.33
2019-05-30T05:10:49.478Z,38.02
2019-05-30T05:11:49.485Z,36.63
2019-05-30T05:12:49.459Z,35.33
2019-05-30T05:13:49.460Z,37.30
2019-05-30T05:14:49.437Z,37.12
2019-05-30T05:15:49.429Z,35.72
2019-05-30T05:16:49.426Z,36.61
2019-05-30T05:17:49.410Z,34.93
2019-05-30T05:18:49.412Z,38.21
2019-05-30T05:19:49.396Z,37.99
2019-05-30T05:20:49.384Z,37.38
2019-05-30T05:21:49.377Z,37.34
2019-05-30T05:22:49.358Z,37.12
2019-05-30T05:23:49.349Z,36.09
2019-05-30T05:24:49.343Z,37.16
2019-05-30T05:26:00.312Z,37.26
2019-05-30T05:26:50.329Z,36.63
2019-05-30T05:27:49.312Z,36.71
2019-05-30T05:28:49.300Z,35.81
2019-05-30T05:29:49.290Z,36.78
2019-05-30T05:30:49.282Z,38.85
2019-05-30T05:31:49.281Z,37.64
2019-05-30T05:32:49.262Z,36.71
2019-05-30T05:33:56.798Z,35.47
2019-05-30T05:34:52.116Z,36.54
2019-05-30T05:35:49.235Z,35.33
2019-05-30T05:36:49.231Z,34.99
2019-05-30T05:37:49.221Z,35.06
2019-05-30T05:38:49.205Z,33.06
2019-05-30T05:39:49.207Z,32.97
2019-05-30T05:40:49.187Z,33.98
2019-05-30T05:41:49.187Z,33.22
2019-05-30T05:42:49.172Z,35.61
2019-05-30T05:43:49.161Z,33.90
2019-05-30T05:44:49.152Z,34.10
2019-05-30T05:45:49.141Z,34.50
2019-05-30T05:46:49.140Z,33.48
2019-05-30T05:47:49.122Z,33.29
2019-05-30T05:48:49.115Z,33.69
2019-05-30T05:49:49.104Z,33.78
2019-05-30T05:50:49.094Z,33.42
2019-05-30T05:51:49.117Z,35.34
2019-05-30T05:52:49.079Z,35.58
2019-05-30T05:53:49.070Z,35.17
2019-05-30T05:54:49.056Z,35.79
2019-05-30T05:55:49.046Z,36.19
2019-05-30T05:56:49.049Z,35.79
2019-05-30T05:57:49.026Z,34.88
2019-05-30T05:58:49.017Z,36.07
2019-05-30T05:59:49.007Z,36.37
2019-05-30T06:00:49.005Z,35.46
2019-05-30T06:01:48.995Z,34.86
2019-05-30T06:02:48.977Z,34.73
2019-05-30T06:03:48.967Z,34.91
2019-05-30T06:04:48.958Z,34.08
2019-05-30T06:05:53.076Z,33.78
2019-05-30T06:06:48.974Z,33.47
2019-05-30T06:07:48.930Z,33.24
2019-05-30T06:08:48.921Z,32.03
2019-05-30T06:09:48.914Z,30.56
2019-05-30T06:10:48.907Z,33.64
2019-05-30T06:11:49.196Z,31.77
2019-05-30T06:12:48.892Z,34.88
2019-05-30T06:13:48.873Z,33.98
2019-05-30T06:14:48.864Z,32.97
2019-05-30T06:15:48.854Z,32.48
2019-05-30T06:16:48.845Z,33.14
2019-05-30T06:17:48.843Z,31.55
2019-05-30T06:18:48.828Z,32.31
2019-05-30T06:19:48.817Z,31.84
2019-05-30T06:20:48.806Z,31.75
2019-05-30T06:21:54.112Z,32.42
2019-05-30T06:22:49.796Z,31.11
2019-05-30T06:23:48.788Z,30.52
2019-05-30T06:24:48.772Z,31.62
2019-05-30T06:25:48.761Z,32.50
2019-05-30T06:26:48.759Z,31.13
2019-05-30T06:27:48.751Z,32.51
2019-05-30T06:28:48.738Z,31.55
2019-05-30T06:29:48.723Z,33.34
2019-05-30T06:30:48.713Z,32.35
2019-05-30T06:31:48.706Z,31.85
2019-05-30T06:32:48.707Z,32.75
2019-05-30T06:33:48.686Z,32.93
2019-05-30T06:34:48.677Z,31.32
2019-05-30T06:35:48.665Z,31.72
2019-05-30T06:36:48.658Z,33.62
2019-05-30T06:37:48.653Z,31.71
2019-05-30T06:38:48.636Z,31.21
2019-05-30T06:39:48.629Z,32.48
2019-05-30T06:40:48.620Z,31.71
2019-05-30T06:41:48.607Z,33.09
2019-05-30T06:42:48.604Z,31.01
2019-05-30T06:43:48.586Z,32.12
2019-05-30T06:44:48.578Z,32.91
2019-05-30T06:45:48.567Z,31.34
2019-05-30T06:46:48.560Z,33.03
2019-05-30T06:47:48.563Z,33.62
2019-05-30T06:48:48.536Z,32.94
2019-05-30T06:49:48.525Z,33.65
2019-05-30T06:50:48.516Z,33.06
2019-05-30T06:51:48.510Z,33.06
2019-05-30T06:52:48.508Z,33.36
2019-05-30T06:53:48.485Z,31.77
2019-05-30T06:54:48.477Z,33.36
2019-05-30T06:55:48.466Z,30.77
2019-05-30T06:56:48.455Z,33.17
2019-05-30T06:57:48.455Z,31.58
2019-05-30T06:58:49.202Z,32.18
2019-05-30T06:59:48.424Z,31.80
2019-05-30T07:00:48.413Z,32.99
2019-05-30T07:01:51.806Z,33.18
2019-05-30T07:02:48.403Z,33.00
2019-05-30T07:03:48.480Z,36.80
2019-05-30T07:04:52.126Z,33.83
2019-05-30T07:05:48.958Z,35.42
2019-05-30T07:06:48.621Z,34.83
2019-05-30T07:07:48.516Z,34.84
2019-05-30T07:08:48.331Z,34.05
2019-05-30T07:09:48.321Z,36.44
2019-05-30T07:10:48.312Z,33.85
2019-05-30T07:11:48.306Z,35.05
2019-05-30T07:12:48.301Z,33.85
2019-05-30T07:13:48.281Z,31.46
2019-05-30T07:14:48.269Z,36.05
2019-05-30T07:15:48.258Z,36.07
2019-05-30T07:16:48.250Z,34.09
2019-05-30T07:17:48.251Z,34.91
2019-05-30T07:18:48.229Z,36.93
2019-05-30T07:19:48.216Z,35.53
2019-05-30T07:20:48.206Z,34.83
2019-05-30T07:21:48.195Z,35.24
2019-05-30T07:22:48.195Z,35.86
2019-05-30T07:23:48.175Z,37.06
2019-05-30T07:24:48.163Z,35.36
2019-05-30T07:25:48.151Z,37.64
2019-05-30T07:26:48.142Z,34.66
2019-05-30T07:27:48.132Z,36.86
2019-05-30T07:28:48.129Z,37.86
2019-05-30T07:29:48.107Z,34.86
2019-05-30T07:30:48.098Z,34.96
2019-05-30T07:31:48.091Z,35.24
2019-05-30T07:32:48.081Z,36.72
2019-05-30T07:33:48.076Z,35.93
2019-05-30T07:34:48.058Z,34.83
2019-05-30T07:35:48.048Z,35.11
2019-05-30T07:36:48.035Z,36.11
2019-05-30T07:37:48.030Z,36.43
2019-05-30T07:38:48.022Z,37.12
2019-05-30T07:39:48.012Z,37.42
2019-05-30T07:40:47.993Z,36.74
2019-05-30T07:42:04.905Z,38.64
2019-05-30T07:42:48.970Z,35.74
2019-05-30T07:43:47.970Z,35.28
2019-05-30T07:44:47.950Z,36.98
2019-05-30T07:45:57.659Z,37.77
2019-05-30T07:46:48.928Z,37.76
2019-05-30T07:47:47.922Z,37.36
2019-05-30T07:48:47.915Z,36.56
2019-05-30T07:49:47.897Z,36.26
2019-05-30T07:50:47.889Z,38.84
2019-05-30T07:51:47.878Z,37.64
2019-05-30T07:52:47.866Z,35.33
2019-05-30T07:53:47.863Z,37.72
2019-05-30T07:54:47.843Z,35.93
2019-05-30T07:55:47.833Z,35.41
2019-05-30T07:56:47.824Z,34.53
2019-05-30T07:57:47.811Z,34.93
2019-05-30T07:58:47.813Z,35.85
2019-05-30T07:59:47.800Z,36.94
2019-05-30T08:00:47.782Z,35.85
2019-05-30T08:01:47.769Z,34.86
2019-05-30T08:02:47.760Z,35.24
2019-05-30T08:03:47.756Z,35.36
2019-05-30T08:04:47.739Z,35.96
2019-05-30T08:05:47.725Z,35.86
2019-05-30T08:06:47.715Z,35.54
2019-05-30T08:07:47.705Z,37.54
2019-05-30T08:08:47.702Z,37.72
2019-05-30T08:09:47.684Z,36.93
2019-05-30T08:10:47.672Z,36.15
2019-05-30T08:11:47.663Z,35.74
2019-05-30T08:12:47.651Z,37.74
2019-05-30T08:13:47.653Z,37.04
2019-05-30T08:14:47.631Z,36.02
2019-05-30T08:15:47.619Z,35.74
2019-05-30T08:16:47.608Z,36.63
2019-05-30T08:17:47.603Z,36.43
2019-05-30T08:18:47.596Z,35.33
2019-05-30T08:19:47.575Z,35.42
2019-05-30T08:20:47.565Z,33.61
2019-05-30T08:21:47.555Z,34.53
2019-05-30T08:22:47.547Z,35.23
2019-05-30T08:23:47.542Z,34.75
2019-05-30T08:24:47.524Z,34.05
2019-05-30T08:25:47.513Z,35.93
2019-05-30T08:26:47.502Z,37.82
2019-05-30T08:27:47.491Z,34.83
2019-05-30T08:28:47.501Z,36.22
2019-05-30T08:29:47.470Z,37.12
2019-05-30T08:30:47.459Z,33.93
2019-05-30T08:31:47.446Z,35.83
2019-05-30T08:32:47.438Z,34.43
2019-05-30T08:33:47.628Z,36.02
2019-05-30T08:34:47.416Z,34.01
2019-05-30T08:35:49.579Z,35.91
2019-05-30T08:36:47.393Z,35.51
2019-05-30T08:37:47.391Z,33.12
2019-05-30T08:38:48.263Z,34.01
2019-05-30T08:39:47.362Z,36.69
2019-05-30T08:40:47.352Z,34.11
2019-05-30T08:41:47.344Z,35.41
2019-05-30T08:42:47.332Z,35.51
2019-05-30T08:43:47.319Z,35.31
2019-05-30T08:44:47.316Z,36.59
2019-05-30T08:45:47.301Z,35.19
2019-05-30T08:46:47.288Z,35.88
2019-05-30T08:47:47.275Z,33.90
2019-05-30T08:48:47.264Z,36.79
2019-05-30T08:49:47.264Z,35.10
2019-05-30T08:50:47.243Z,36.59
2019-05-30T08:51:47.234Z,35.89
2019-05-30T08:52:47.223Z,34.81
2019-05-30T08:53:47.211Z,33.51
2019-05-30T08:54:47.211Z,34.51
2019-05-30T08:55:47.190Z,36.69
2019-05-30T08:56:47.178Z,36.79
2019-05-30T08:57:47.176Z,33.10
2019-05-30T08:58:47.156Z,35.49
2019-05-30T08:59:47.159Z,35.17
2019-05-30T09:00:47.138Z,36.07
2019-05-30T09:01:51.714Z,35.97
2019-05-30T09:02:48.115Z,35.66
2019-05-30T09:03:47.103Z,35.46
2019-05-30T09:04:47.100Z,33.76
2019-05-30T09:05:59.300Z,35.38
2019-05-30T09:06:48.070Z,33.78
2019-05-30T09:07:47.065Z,34.76
2019-05-30T09:08:47.049Z,32.27
2019-05-30T09:09:47.047Z,33.08
2019-05-30T09:10:47.030Z,35.47
2019-05-30T09:11:47.017Z,33.86
2019-05-30T09:12:49.489Z,35.66
2019-05-30T09:13:46.996Z,35.14
2019-05-30T09:14:47.007Z,33.34
2019-05-30T09:15:47.124Z,35.94
2019-05-30T09:16:48.269Z,33.75
2019-05-30T09:17:46.960Z,33.97
2019-05-30T09:18:47.482Z,35.24
2019-05-30T09:19:47.492Z,32.15
2019-05-30T09:20:47.447Z,32.47
2019-05-30T09:21:47.514Z,33.95
2019-05-30T09:22:47.430Z,34.15
2019-05-30T09:23:47.964Z,33.65
2019-05-30T09:24:47.937Z,34.34
2019-05-30T09:25:49.302Z,34.05
2019-05-30T09:26:50.194Z,33.45
2019-05-30T09:27:48.245Z,34.96
2019-05-30T09:28:46.835Z,35.06
2019-05-30T09:29:46.834Z,34.56
2019-05-30T09:30:46.819Z,33.76
2019-05-30T09:31:46.803Z,34.84
2019-05-30T09:32:47.055Z,32.15
2019-05-30T09:33:46.791Z,33.56
2019-05-30T09:34:47.015Z,34.75
2019-05-30T09:35:47.084Z,35.92
2019-05-30T09:36:46.961Z,34.45
2019-05-30T09:37:47.762Z,34.05
2019-05-30T09:38:47.450Z,34.15
2019-05-30T09:39:47.417Z,34.94
2019-05-30T09:40:47.651Z,34.34
2019-05-30T09:41:47.743Z,35.82
2019-05-30T09:42:48.521Z,35.03
2019-05-30T09:43:46.675Z,33.83
2019-05-30T09:44:50.208Z,32.04
2019-05-30T09:45:46.657Z,34.73
2019-05-30T09:46:47.005Z,34.22
2019-05-30T09:47:47.133Z,32.44
2019-05-30T09:48:46.817Z,33.93
2019-05-30T09:49:46.626Z,33.34
2019-05-30T09:50:46.819Z,33.23
2019-05-30T09:51:47.021Z,34.53
2019-05-30T09:52:47.132Z,34.84
2019-05-30T09:53:46.569Z,35.84
2019-05-30T09:54:46.569Z,34.75
2019-05-30T09:55:46.561Z,33.35
2019-05-30T09:56:46.646Z,33.25
2019-05-30T09:57:47.575Z,33.75
2019-05-30T09:58:47.665Z,34.83
2019-05-30T09:59:48.158Z,33.83
2019-05-30T10:00:48.203Z,35.11
2019-05-30T10:01:46.483Z,35.03
2019-05-30T10:02:46.836Z,34.41
2019-05-30T10:03:46.597Z,33.12
2019-05-30T10:04:46.900Z,35.41
2019-05-30T10:05:47.057Z,35.63
2019-05-30T10:06:46.431Z,33.75
2019-05-30T10:07:47.499Z,33.75
2019-05-30T10:08:47.724Z,32.45
2019-05-30T10:09:47.157Z,35.54
2019-05-30T10:10:47.702Z,34.94
2019-05-30T10:11:47.243Z,35.13
2019-05-30T10:12:46.929Z,34.23
2019-05-30T10:13:47.518Z,33.63
2019-05-30T10:14:46.898Z,35.50
2019-05-30T10:15:46.962Z,35.61
2019-05-30T10:16:50.338Z,32.72
2019-05-30T10:17:48.125Z,35.11
2019-05-30T10:18:47.437Z,33.02
2019-05-30T10:19:47.149Z,33.02
2019-05-30T10:20:47.835Z,29.74
2019-05-30T10:21:47.183Z,33.05
2019-05-30T10:22:47.112Z,35.26
2019-05-30T10:23:47.519Z,32.57
2019-05-30T10:24:47.576Z,34.27
2019-05-30T10:25:47.846Z,34.15
2019-05-30T10:26:47.230Z,35.44
2019-05-30T10:27:48.032Z,33.75
2019-05-30T10:28:47.712Z,33.15
2019-05-30T10:29:47.595Z,34.84
2019-05-30T10:30:50.921Z,34.75
2019-05-30T10:31:48.272Z,34.45
2019-05-30T10:32:47.336Z,33.45
2019-05-30T10:33:47.559Z,34.92
2019-05-30T10:34:46.634Z,33.45
2019-05-30T10:35:47.435Z,34.46
2019-05-30T10:36:47.723Z,34.56
2019-05-30T10:37:47.178Z,33.37
2019-05-30T10:38:47.388Z,34.96
2019-05-30T10:39:47.312Z,31.97
2019-05-30T10:40:47.371Z,32.07
2019-05-30T10:41:47.463Z,36.04
2019-05-30T10:42:47.551Z,34.75
2019-05-30T10:43:47.362Z,35.63
2019-05-30T10:44:47.512Z,35.61
2019-05-30T10:45:46.572Z,33.11
2019-05-30T10:46:47.218Z,32.21
2019-05-30T10:47:47.484Z,32.01
2019-05-30T10:48:47.297Z,30.93
2019-05-30T10:49:46.835Z,34.91
2019-05-30T10:50:47.018Z,33.53
2019-05-30T10:51:46.637Z,35.42
2019-05-30T10:52:47.142Z,34.23
2019-05-30T10:53:47.385Z,31.74
2019-05-30T10:54:46.704Z,30.76
2019-05-30T10:55:46.929Z,33.45
2019-05-30T10:56:47.036Z,33.25
2019-05-30T10:57:47.019Z,34.92
2019-05-30T10:58:47.988Z,35.92
2019-05-30T10:59:47.186Z,33.34
2019-05-30T11:00:47.234Z,33.53
2019-05-30T11:01:47.092Z,33.34
2019-05-30T11:02:47.376Z,34.73
2019-05-30T11:03:47.125Z,33.83
2019-05-30T11:04:46.142Z,35.80
2019-05-30T11:05:46.215Z,32.12
2019-05-30T11:07:01.279Z,33.32
2019-05-30T11:08:00.162Z,34.11
2019-05-30T11:08:47.924Z,33.52
2019-05-30T11:09:46.605Z,35.11
2019-05-30T11:10:46.430Z,34.20
2019-05-30T11:11:46.637Z,34.80
2019-05-30T11:12:46.618Z,34.80
2019-05-30T11:13:46.786Z,33.11
2019-05-30T11:14:46.825Z,35.29
2019-05-30T11:15:47.078Z,34.00
2019-05-30T11:16:45.706Z,33.62
2019-05-30T11:17:45.685Z,34.80
2019-05-30T11:18:45.674Z,35.10
2019-05-30T11:19:45.665Z,35.59
2019-05-30T11:20:45.654Z,35.08
2019-05-30T11:21:45.653Z,31.32
2019-05-30T11:22:45.638Z,34.40
2019-05-30T11:23:45.622Z,33.62
2019-05-30T11:24:45.611Z,33.92
2019-05-30T11:25:45.663Z,35.41
2019-05-30T11:26:45.600Z,33.20
2019-05-30T11:27:45.583Z,33.30
2019-05-30T11:28:45.568Z,34.59
2019-05-30T11:29:45.557Z,33.40
2019-05-30T11:30:45.553Z,32.92
2019-05-30T11:31:45.545Z,35.61
2019-05-30T11:32:45.528Z,34.89
2019-05-30T11:33:45.520Z,33.02
2019-05-30T11:34:45.505Z,34.13
2019-05-30T11:35:45.494Z,31.96
2019-05-30T11:36:45.492Z,32.75
2019-05-30T11:37:45.472Z,33.44
2019-05-30T11:38:45.521Z,33.34
2019-05-30T11:39:45.452Z,33.53
2019-05-30T11:40:45.440Z,34.53
2019-05-30T11:41:45.438Z,33.32
2019-05-30T11:42:45.419Z,34.83
2019-05-30T11:43:45.415Z,34.81
2019-05-30T11:44:45.410Z,33.22
2019-05-30T11:45:45.388Z,34.03
2019-05-30T11:46:45.390Z,33.53
2019-05-30T11:47:45.368Z,34.73
2019-05-30T11:48:45.356Z,33.73
2019-05-30T11:49:45.346Z,34.81
2019-05-30T11:50:45.390Z,33.02
2019-05-30T11:51:45.336Z,33.22
2019-05-30T11:52:45.315Z,34.31
2019-05-30T11:53:45.354Z,35.50
2019-05-30T11:54:45.295Z,33.50
2019-05-30T11:55:45.290Z,33.20
2019-05-30T11:56:45.285Z,31.71
2019-05-30T11:57:45.262Z,35.17
2019-05-30T11:58:45.252Z,33.18
2019-05-30T11:59:45.242Z,33.18
2019-05-30T12:00:45.230Z,32.99
2019-05-30T12:01:45.257Z,32.39
2019-05-30T12:02:45.239Z,34.99
2019-05-30T12:03:45.210Z,34.69
2019-05-30T12:04:45.188Z,35.47
2019-05-30T12:05:45.177Z,35.08
2019-05-30T12:06:45.169Z,33.00
2019-05-30T12:07:45.165Z,31.99
2019-05-30T12:08:45.146Z,32.69
2019-05-30T12:09:45.139Z,32.89
2019-05-30T12:10:45.125Z,34.08
2019-05-30T12:11:45.114Z,35.08
2019-05-30T12:12:45.112Z,34.88
2019-05-30T12:13:45.096Z,34.76
2019-05-30T12:14:45.085Z,31.98
2019-05-30T12:15:45.071Z,34.86
2019-05-30T12:16:45.062Z,30.80
2019-05-30T12:17:45.059Z,33.00
2019-05-30T12:18:45.040Z,32.49
2019-05-30T12:19:45.030Z,32.89
2019-05-30T12:20:45.023Z,31.80
2019-05-30T12:21:45.010Z,35.38
2019-05-30T12:22:45.006Z,34.68
2019-05-30T12:23:44.986Z,35.08
2019-05-30T12:24:44.977Z,34.78
2019-05-30T12:25:44.970Z,32.89
2019-05-30T12:26:44.955Z,35.38
2019-05-30T12:27:44.956Z,34.68
2019-05-30T12:28:44.934Z,34.08
2019-05-30T12:29:44.924Z,33.78
2019-05-30T12:30:55.881Z,35.27
2019-05-30T12:31:45.904Z,34.36
2019-05-30T12:32:44.904Z,33.18
2019-05-30T12:33:44.882Z,32.38
2019-05-30T12:34:44.873Z,34.56
2019-05-30T12:35:44.876Z,35.26
2019-05-30T12:36:44.851Z,35.26
2019-05-30T12:37:55.064Z,32.96
2019-05-30T12:38:45.829Z,34.05
2019-05-30T12:39:44.820Z,34.66
2019-05-30T12:40:44.809Z,31.58
2019-05-30T12:41:44.798Z,32.49
2019-05-30T12:42:44.797Z,34.20
2019-05-30T12:43:44.779Z,33.50
2019-05-30T12:44:44.772Z,32.49
2019-05-30T12:45:44.756Z,31.61
2019-05-30T12:46:44.746Z,33.48
2019-05-30T12:47:44.745Z,33.69
2019-05-30T12:48:44.727Z,33.40
2019-05-30T12:49:44.713Z,33.30
2019-05-30T12:50:44.705Z,34.30
2019-05-30T12:51:44.700Z,34.99